Time;durP1;ratioP1;P1;durP2;ratioP2;P2;SDS_P1;SDS_P2;PMS_P1;PMS_P2;Temp;Humidity;BMP_temperature;BMP_pressure;BME280_temperature;BME280_humidity;BME280_pressure;Samples;Min_cycle;Max_cycle;Signal;HPM_P1;HPM_P2
2024/01/11 00:01:50;;;;;;;3.40;2.92;;;32.50;99.90;;;;;;4989647;28;20563;-70
2024/01/11 00:04:18;;;;;;;3.80;2.53;;;31.60;99.90;;;;;;4974748;28;20182;-73
2024/01/11 00:06:46;;;;;;;5.15;3.00;;;31.40;99.90;;;;;;4974992;28;20254;-73
2024/01/11 00:09:13;;;;;;;5.53;3.00;;;31.80;99.90;;;;;;4975008;28;20565;-74
2024/01/11 00:11:41;;;;;;;4.20;2.80;;;31.70;99.90;;;;;;4986985;28;20183;-75
2024/01/11 00:14:09;;;;;;;4.47;2.92;;;31.50;99.90;;;;;;4975036;28;20175;-68
2024/01/11 00:16:36;;;;;;;5.78;3.33;;;31.50;99.90;;;;;;4974844;28;20179;-71
2024/01/11 00:22:27;;;;;;;3.95;2.15;;;33.30;99.90;;;;;;4976952;28;20199;-72
2024/01/11 00:24:54;;;;;;;7.25;2.80;;;34.10;99.90;;;;;;4994264;28;20171;-74
2024/01/11 00:27:22;;;;;;;5.13;2.92;;;33.40;99.90;;;;;;4993841;28;20175;-74
2024/01/11 00:29:50;;;;;;;6.38;3.05;;;32.70;99.90;;;;;;4993935;28;20183;-74
2024/01/11 00:32:17;;;;;;;5.00;2.53;;;33.00;99.90;;;;;;4993893;28;20241;-73
2024/01/11 00:34:45;;;;;;;5.22;2.55;;;33.20;99.90;;;;;;4976023;28;20649;-73
2024/01/11 00:37:13;;;;;;;3.60;2.13;;;33.40;99.90;;;;;;4973083;28;20222;-74
2024/01/11 00:39:40;;;;;;;5.43;2.25;;;32.80;99.90;;;;;;4990141;28;20198;-73
2024/01/11 00:42:08;;;;;;;5.63;2.50;;;32.30;99.90;;;;;;4992373;28;20186;-72
2024/01/11 00:44:36;;;;;;;5.53;2.45;;;32.00;99.90;;;;;;4977572;28;20356;-70
2024/01/11 00:47:03;;;;;;;4.50;2.30;;;31.70;99.90;;;;;;4974120;28;20183;-73
2024/01/11 00:49:31;;;;;;;9.95;2.60;;;31.60;99.90;;;;;;4983296;28;20179;-74
2024/01/11 00:52:00;;;;;;;7.63;2.85;;;31.90;99.90;;;;;;4993337;28;20209;-74
2024/01/11 00:54:27;;;;;;;5.38;2.70;;;32.60;99.90;;;;;;4978953;28;20184;-74
2024/01/11 00:56:55;;;;;;;5.20;2.67;;;32.50;99.90;;;;;;4975534;28;20211;-74
2024/01/11 00:59:23;;;;;;;7.00;2.55;;;32.10;99.90;;;;;;4987880;28;20269;-68
2024/01/11 01:01:51;;;;;;;4.88;2.17;;;32.60;99.90;;;;;;4985759;28;20183;-74
2024/01/11 01:04:18;;;;;;;7.03;2.50;;;33.00;99.90;;;;;;4981149;28;20186;-74
2024/01/11 01:06:46;;;;;;;3.45;2.28;;;33.80;99.90;;;;;;4984511;28;20592;-72
2024/01/11 01:09:14;;;;;;;4.25;2.03;;;34.20;99.90;;;;;;4989758;28;20209;-76
2024/01/11 01:11:42;;;;;;;4.18;2.22;;;34.80;99.90;;;;;;4986870;28;20193;-72
2024/01/11 01:14:10;;;;;;;3.85;2.38;;;33.30;99.90;;;;;;4981654;28;20183;-72
2024/01/11 01:16:37;;;;;;;3.88;2.60;;;33.80;99.90;;;;;;4976172;28;20186;-74
2024/01/11 01:19:05;;;;;;;3.85;2.50;;;33.80;99.90;;;;;;4981346;28;20201;-72
2024/01/11 01:21:33;;;;;;;4.07;2.78;;;33.40;99.90;;;;;;4978334;28;20191;-70
2024/01/11 01:24:00;;;;;;;6.43;2.70;;;32.70;99.90;;;;;;4981536;28;20195;-73
2024/01/11 01:26:28;;;;;;;4.72;2.40;;;32.70;99.90;;;;;;4986445;28;20715;-70
2024/01/11 01:28:56;;;;;;;4.03;2.67;;;33.20;99.90;;;;;;4982279;28;20179;-68
2024/01/11 01:31:25;;;;;;;9.38;2.70;;;33.90;99.90;;;;;;4978675;28;20536;-73
2024/01/11 01:33:52;;;;;;;8.98;2.78;;;34.50;99.90;;;;;;4991918;28;20250;-68
2024/01/11 01:36:20;;;;;;;7.03;2.50;;;35.10;99.90;;;;;;4992983;28;20209;-74
2024/01/11 01:38:48;;;;;;;5.53;2.90;;;35.40;99.90;;;;;;4992292;28;20679;-69
2024/01/11 01:41:15;;;;;;;4.53;2.58;;;34.10;99.90;;;;;;4987333;28;20194;-72
2024/01/11 01:43:43;;;;;;;6.05;2.85;;;33.00;99.90;;;;;;4972899;28;20589;-68
2024/01/11 01:46:11;;;;;;;6.05;2.72;;;32.60;99.90;;;;;;4976210;28;20205;-74
2024/01/11 01:48:39;;;;;;;4.97;2.55;;;33.40;99.90;;;;;;4992001;28;20190;-72
2024/01/11 01:51:07;;;;;;;4.43;2.45;;;34.20;99.90;;;;;;4980112;28;20197;-70
2024/01/11 01:53:35;;;;;;;5.32;2.85;;;34.50;99.90;;;;;;4992712;28;20182;-71
2024/01/11 01:56:04;;;;;;;5.57;2.95;;;34.50;99.90;;;;;;4992315;28;20205;-69
2024/01/11 01:58:32;;;;;;;6.70;2.78;;;34.30;99.90;;;;;;4981713;28;20227;-69
2024/01/11 02:00:59;;;;;;;4.82;2.88;;;34.50;99.90;;;;;;4972744;28;20549;-72
2024/01/11 02:03:30;;;;;;;7.95;3.30;;;34.70;99.90;;;;;;4973722;28;20206;-70
2024/01/11 02:05:58;;;;;;;5.38;2.80;;;34.50;99.90;;;;;;4982477;28;20632;-72
2024/01/11 02:08:27;;;;;;;5.22;2.63;;;34.20;99.90;;;;;;4990453;28;20197;-73
2024/01/11 02:10:55;;;;;;;5.32;2.53;;;33.70;99.90;;;;;;4975596;28;20174;-69
2024/01/11 02:13:23;;;;;;;7.38;2.92;;;34.00;99.90;;;;;;4972841;28;20191;-69
2024/01/11 02:15:50;;;;;;;6.32;2.83;;;34.60;99.90;;;;;;4973150;28;20289;-72
2024/01/11 02:18:18;;;;;;;7.60;2.65;;;34.70;99.90;;;;;;4972314;28;20221;-71
2024/01/11 02:20:45;;;;;;;6.13;2.47;;;34.80;99.90;;;;;;4974023;28;20183;-69
2024/01/11 02:23:19;;;;;;;5.93;3.15;;;34.90;99.90;;;;;;4965683;28;20766;-69
2024/01/11 02:25:47;;;;;;;4.78;3.05;;;34.90;99.90;;;;;;4985340;28;20223;-72
2024/01/11 02:28:14;;;;;;;5.97;3.03;;;33.90;99.90;;;;;;4992428;28;20185;-70
2024/01/11 02:30:42;;;;;;;5.93;2.90;;;33.60;99.90;;;;;;4992006;28;20200;-75
2024/01/11 02:33:11;;;;;;;6.53;3.45;;;33.90;99.90;;;;;;4983868;28;20189;-74
2024/01/11 02:35:41;;;;;;;6.70;2.88;;;34.20;99.90;;;;;;4972668;28;20183;-71
2024/01/11 02:38:08;;;;;;;3.17;2.13;;;34.10;99.90;;;;;;4972115;28;20210;-70
2024/01/11 02:40:37;;;;;;;4.22;2.85;;;33.40;99.90;;;;;;4972825;28;20179;-71
2024/01/11 02:43:11;;;;;;;3.88;2.55;;;32.60;99.90;;;;;;4979792;28;21127;-72
2024/01/11 02:45:38;;;;;;;5.72;2.58;;;32.70;99.90;;;;;;4991742;28;20201;-69
2024/01/11 02:48:06;;;;;;;7.50;2.50;;;33.30;99.90;;;;;;4989424;28;20185;-70
2024/01/11 02:50:33;;;;;;;5.55;2.60;;;33.80;99.90;;;;;;4972643;28;20242;-74
2024/01/11 02:53:01;;;;;;;4.65;2.60;;;33.90;99.90;;;;;;4982255;28;20554;-72
2024/01/11 02:55:28;;;;;;;3.60;2.38;;;33.80;99.90;;;;;;4972522;28;20649;-74
2024/01/11 02:57:55;;;;;;;6.25;2.53;;;34.10;99.90;;;;;;4972599;28;20227;-71
2024/01/11 03:00:23;;;;;;;4.88;2.35;;;34.10;99.90;;;;;;4972016;28;20547;-75
2024/01/11 03:02:51;;;;;;;2.90;1.95;;;34.20;99.90;;;;;;4977332;28;20739;-70
2024/01/11 03:05:18;;;;;;;5.10;2.28;;;34.40;99.90;;;;;;4993599;28;20667;-74
2024/01/11 03:07:45;;;;;;;4.90;2.58;;;34.60;99.90;;;;;;4988790;28;20180;-68
2024/01/11 03:10:12;;;;;;;7.10;1.95;;;34.50;99.90;;;;;;4985583;28;20236;-69
2024/01/11 03:12:41;;;;;;;3.50;2.30;;;34.40;99.90;;;;;;4990827;28;20199;-71
2024/01/11 03:15:08;;;;;;;6.28;2.00;;;34.50;99.90;;;;;;4975757;28;20263;-69
2024/01/11 03:17:36;;;;;;;4.40;1.98;;;34.60;99.90;;;;;;4976016;28;20253;-72
2024/01/11 03:20:05;;;;;;;3.80;2.20;;;34.80;99.90;;;;;;4984532;28;20186;-72
2024/01/11 03:22:32;;;;;;;6.25;2.63;;;34.90;99.90;;;;;;4990338;28;20262;-73
2024/01/11 03:25:00;;;;;;;4.78;3.20;;;34.50;99.90;;;;;;4976108;28;20214;-73
2024/01/11 03:27:27;;;;;;;4.28;2.75;;;34.20;99.90;;;;;;4980805;28;20217;-70
2024/01/11 03:29:54;;;;;;;4.82;2.58;;;34.60;99.90;;;;;;4994550;28;20586;-69
2024/01/11 03:32:22;;;;;;;5.72;2.60;;;33.80;99.90;;;;;;4992277;28;20187;-72
2024/01/11 03:34:49;;;;;;;6.55;2.40;;;34.10;99.90;;;;;;4975814;28;20195;-71
2024/01/11 03:37:16;;;;;;;5.30;2.30;;;34.30;99.90;;;;;;4981229;28;20241;-72
2024/01/11 03:39:44;;;;;;;4.90;2.42;;;35.00;99.90;;;;;;4995170;28;20179;-69
2024/01/11 03:42:11;;;;;;;7.13;2.60;;;34.50;99.90;;;;;;4991057;28;20183;-69
2024/01/11 03:44:38;;;;;;;5.75;2.95;;;34.30;99.90;;;;;;4975321;28;20223;-72
2024/01/11 03:47:06;;;;;;;6.20;2.78;;;34.60;99.90;;;;;;4980304;28;20234;-69
2024/01/11 03:49:33;;;;;;;4.18;2.22;;;33.70;99.90;;;;;;4996355;28;20269;-73
2024/01/11 03:52:01;;;;;;;3.33;2.10;;;34.20;99.90;;;;;;4992378;28;20537;-69
2024/01/11 03:54:28;;;;;;;3.10;1.92;;;34.80;99.90;;;;;;4974848;28;20179;-70
2024/01/11 03:56:55;;;;;;;4.97;1.98;;;35.00;99.90;;;;;;4975220;28;20206;-70
2024/01/11 03:59:23;;;;;;;6.13;1.95;;;35.20;99.90;;;;;;4973663;28;20583;-70
2024/01/11 04:01:50;;;;;;;3.80;1.90;;;34.50;99.90;;;;;;4986562;28;20589;-73
2024/01/11 04:04:17;;;;;;;5.43;2.10;;;34.20;99.90;;;;;;4993506;28;20620;-74
2024/01/11 04:06:45;;;;;;;4.60;2.10;;;34.20;99.90;;;;;;4979334;28;20186;-73
2024/01/11 04:09:12;;;;;;;5.65;2.13;;;33.80;99.90;;;;;;4974762;28;20183;-71
2024/01/11 04:11:39;;;;;;;3.95;1.60;;;34.20;99.90;;;;;;4985816;28;20179;-71
2024/01/11 04:14:07;;;;;;;4.95;2.38;;;34.30;99.90;;;;;;4994618;28;20321;-73
2024/01/11 04:16:34;;;;;;;2.50;1.60;;;34.30;99.90;;;;;;4992802;28;20178;-71
2024/01/11 04:19:03;;;;;;;5.60;1.60;;;33.40;99.90;;;;;;4994418;28;20215;-70
2024/01/11 04:21:31;;;;;;;7.43;2.20;;;33.30;99.90;;;;;;4984040;28;20673;-71
2024/01/11 04:23:58;;;;;;;2.70;1.42;;;33.80;99.90;;;;;;4988056;28;20194;-75
2024/01/11 04:26:26;;;;;;;4.20;1.77;;;33.40;99.90;;;;;;4993935;28;20182;-75
2024/01/11 04:28:53;;;;;;;4.30;1.67;;;33.10;99.90;;;;;;4989068;28;20649;-75
2024/01/11 04:31:21;;;;;;;4.25;1.80;;;33.00;99.90;;;;;;4982022;28;20269;-74
2024/01/11 04:33:48;;;;;;;3.00;1.75;;;32.50;99.90;;;;;;4993922;28;20187;-74
2024/01/11 04:36:15;;;;;;;4.18;1.67;;;32.80;99.90;;;;;;4993986;28;20209;-70
2024/01/11 04:38:44;;;;;;;9.02;2.15;;;32.90;99.90;;;;;;4991726;28;20690;-73
2024/01/11 04:41:16;;;;;;;2.72;1.58;;;33.20;99.90;;;;;;4993520;28;20215;-70
2024/01/11 04:43:45;;;;;;;4.80;1.77;;;33.10;99.90;;;;;;4990316;28;20277;-70
2024/01/11 04:46:15;;;;;;;2.78;1.65;;;33.40;99.90;;;;;;4974089;28;20179;-76
2024/01/11 04:48:43;;;;;;;8.57;1.92;;;32.50;99.90;;;;;;4988606;28;20185;-73
2024/01/11 04:51:10;;;;;;;3.22;1.48;;;33.00;99.90;;;;;;4989544;28;20218;-69
2024/01/11 04:53:39;;;;;;;13.90;2.33;;;33.80;99.90;;;;;;4973976;28;20189;-71
2024/01/11 04:56:08;;;;;;;2.65;1.40;;;33.90;99.90;;;;;;4974365;28;20176;-73
2024/01/11 04:58:37;;;;;;;2.30;1.42;;;33.60;99.90;;;;;;4974091;28;20230;-70
2024/01/11 05:01:06;;;;;;;5.25;1.95;;;33.10;99.90;;;;;;4975062;28;20238;-72
2024/01/11 05:03:34;;;;;;;2.83;1.40;;;32.60;99.90;;;;;;4973918;28;20679;-72
2024/01/11 05:06:01;;;;;;;6.47;1.63;;;32.60;99.90;;;;;;4974035;28;20183;-72
2024/01/11 05:08:29;;;;;;;6.38;2.20;;;32.70;99.90;;;;;;4973654;28;20539;-73
2024/01/11 05:10:57;;;;;;;4.18;1.50;;;32.60;99.90;;;;;;4974145;28;20178;-74
2024/01/11 05:13:24;;;;;;;4.47;2.03;;;31.90;99.90;;;;;;4973776;28;20176;-70
2024/01/11 05:15:51;;;;;;;5.78;2.05;;;31.70;99.90;;;;;;4973825;28;20194;-70
2024/01/11 05:18:19;;;;;;;2.47;1.45;;;31.60;99.90;;;;;;4984846;28;20297;-74
2024/01/11 05:20:46;;;;;;;4.30;1.60;;;31.60;99.90;;;;;;4973967;28;20179;-72
2024/01/11 05:23:13;;;;;;;5.43;1.77;;;31.40;99.90;;;;;;4973229;28;20250;-73
2024/01/11 05:25:41;;;;;;;3.63;1.65;;;31.30;99.90;;;;;;4973636;28;20271;-71
2024/01/11 05:28:08;;;;;;;4.85;1.50;;;31.70;99.90;;;;;;4954397;28;20249;-73
2024/01/11 05:30:35;;;;;;;4.18;1.42;;;31.80;99.90;;;;;;4980110;28;20179;-73
2024/01/11 05:33:04;;;;;;;6.85;1.40;;;31.50;99.90;;;;;;4992433;28;20644;-72
2024/01/11 05:35:31;;;;;;;4.63;1.13;;;31.60;99.90;;;;;;4989595;28;20190;-74
2024/01/11 05:37:58;;;;;;;7.75;1.90;;;31.60;99.90;;;;;;4992461;28;20225;-71
2024/01/11 05:40:27;;;;;;;4.05;1.40;;;31.30;99.90;;;;;;4980014;28;20187;-70
2024/01/11 05:42:54;;;;;;;3.20;1.20;;;31.60;99.90;;;;;;4972726;28;20184;-71
2024/01/11 05:45:21;;;;;;;3.25;1.35;;;31.60;99.90;;;;;;4973544;28;20184;-70
2024/01/11 05:47:49;;;;;;;3.38;1.58;;;31.10;99.90;;;;;;4988241;28;20186;-73
2024/01/11 05:50:16;;;;;;;8.80;1.97;;;31.00;99.90;;;;;;4983108;28;20278;-74
2024/01/11 05:52:44;;;;;;;5.18;1.70;;;31.40;99.90;;;;;;4980499;28;20187;-74
2024/01/11 05:55:11;;;;;;;5.43;1.38;;;31.30;99.90;;;;;;4973225;28;20219;-74
2024/01/11 05:57:38;;;;;;;3.60;1.45;;;31.40;99.90;;;;;;4972842;28;20850;-69
2024/01/11 06:00:06;;;;;;;8.45;1.98;;;31.30;99.90;;;;;;4981963;28;20179;-70
2024/01/11 06:02:33;;;;;;;4.28;1.40;;;31.20;99.90;;;;;;4992587;28;20247;-69
2024/01/11 06:05:01;;;;;;;4.07;1.50;;;30.90;99.90;;;;;;4992137;28;20660;-70
2024/01/11 06:07:29;;;;;;;5.05;1.42;;;30.80;99.90;;;;;;4992201;28;20194;-69
2024/01/11 06:09:56;;;;;;;4.27;1.20;;;31.10;99.90;;;;;;4984804;28;20613;-75
2024/01/11 06:12:23;;;;;;;4.13;1.53;;;31.30;99.90;;;;;;4973686;28;20217;-72
2024/01/11 06:14:51;;;;;;;4.77;1.30;;;30.90;99.90;;;;;;4973144;28;20189;-74
2024/01/11 06:17:18;;;;;;;3.90;1.20;;;30.60;99.90;;;;;;4973039;28;20261;-78
2024/01/11 06:19:45;;;;;;;5.55;1.70;;;30.50;99.90;;;;;;4971068;28;20199;-71
2024/01/11 06:22:13;;;;;;;3.80;1.70;;;30.80;99.90;;;;;;4972810;28;20186;-70
2024/01/11 06:24:40;;;;;;;4.38;1.45;;;30.90;99.90;;;;;;4991906;28;20187;-71
2024/01/11 06:27:07;;;;;;;3.88;1.30;;;30.90;99.90;;;;;;4991733;28;20187;-69
2024/01/11 06:29:35;;;;;;;4.03;1.30;;;30.90;99.90;;;;;;4992124;28;20185;-75
2024/01/11 06:32:02;;;;;;;3.80;1.20;;;31.10;99.90;;;;;;4992418;28;20238;-69
2024/01/11 06:34:29;;;;;;;4.25;1.13;;;31.40;99.90;;;;;;4980940;28;20182;-69
2024/01/11 06:36:57;;;;;;;2.50;1.17;;;31.60;99.90;;;;;;4992205;28;20199;-72
2024/01/11 06:39:25;;;;;;;3.40;1.08;;;31.60;99.90;;;;;;4992831;28;20245;-72
2024/01/11 06:41:52;;;;;;;3.65;1.20;;;31.40;99.90;;;;;;4981680;28;20186;-70
2024/01/11 06:44:19;;;;;;;4.13;1.30;;;31.10;99.90;;;;;;4988992;28;20233;-71
2024/01/11 06:46:47;;;;;;;3.10;1.55;;;30.70;99.90;;;;;;4996295;28;20182;-72
2024/01/11 06:49:14;;;;;;;4.40;1.10;;;30.70;99.90;;;;;;4995590;28;20182;-76
2024/01/11 06:51:41;;;;;;;4.93;1.55;;;30.50;99.90;;;;;;4996206;28;20206;-80
2024/01/11 06:54:08;;;;;;;3.53;1.40;;;30.20;99.90;;;;;;4984793;28;20246;-73
2024/01/11 06:56:36;;;;;;;6.13;1.50;;;30.00;99.90;;;;;;4976229;28;20226;-75
2024/01/11 06:59:03;;;;;;;4.23;1.30;;;29.90;99.90;;;;;;4977558;28;20595;-75
2024/01/11 07:01:31;;;;;;;3.60;1.50;;;29.90;99.90;;;;;;4976394;28;20655;-73
2024/01/11 07:03:58;;;;;;;4.68;1.40;;;30.00;99.90;;;;;;4977301;28;20273;-72
2024/01/11 07:06:25;;;;;;;5.50;1.83;;;29.90;99.90;;;;;;4987271;28;20196;-69
2024/01/11 07:08:53;;;;;;;4.03;1.50;;;29.50;99.90;;;;;;4989178;28;20190;-70
2024/01/11 07:11:20;;;;;;;2.67;1.30;;;29.30;99.90;;;;;;4995340;28;20194;-73
2024/01/11 07:13:47;;;;;;;4.20;1.70;;;29.20;99.90;;;;;;4995145;28;20222;-75
2024/01/11 07:16:15;;;;;;;4.93;1.43;;;29.10;99.90;;;;;;4993947;28;20183;-75
2024/01/11 07:18:42;;;;;;;6.63;1.87;;;29.20;99.90;;;;;;4992986;28;20222;-76
2024/01/11 07:21:09;;;;;;;6.83;2.20;;;29.10;99.90;;;;;;4994939;28;20283;-69
2024/01/11 07:23:37;;;;;;;4.77;1.57;;;29.00;99.90;;;;;;4994976;28;20664;-73
2024/01/11 07:26:04;;;;;;;5.27;1.50;;;29.30;99.90;;;;;;4991757;28;20187;-74
2024/01/11 07:28:31;;;;;;;2.93;1.30;;;29.20;99.90;;;;;;4975951;28;20191;-72
2024/01/11 07:30:59;;;;;;;3.90;1.67;;;29.10;99.90;;;;;;4977604;28;20234;-70
2024/01/11 07:33:26;;;;;;;3.50;1.27;;;28.80;99.90;;;;;;4975435;28;20182;-73
2024/01/11 07:35:53;;;;;;;4.70;1.40;;;28.70;99.90;;;;;;4984152;28;20564;-74
2024/01/11 07:38:20;;;;;;;6.60;1.60;;;28.90;99.90;;;;;;4995046;28;20257;-71
2024/01/11 07:40:48;;;;;;;6.97;1.50;;;29.20;99.90;;;;;;4994913;28;20178;-74
2024/01/11 07:43:15;;;;;;;5.47;1.80;;;29.10;99.90;;;;;;4994816;28;20234;-73
2024/01/11 07:45:42;;;;;;;6.40;1.63;;;29.00;99.90;;;;;;4990577;28;20629;-69
2024/01/11 07:48:10;;;;;;;6.70;1.60;;;29.00;99.90;;;;;;4975144;28;20175;-73
2024/01/11 07:50:37;;;;;;;4.23;1.60;;;29.00;99.90;;;;;;4975516;28;20183;-74
2024/01/11 07:53:05;;;;;;;3.47;1.33;;;29.10;99.90;;;;;;4975574;28;20187;-76
2024/01/11 07:55:33;;;;;;;3.30;1.37;;;29.20;99.90;;;;;;4975060;28;20199;-70
2024/01/11 07:58:01;;;;;;;5.23;1.73;;;29.30;99.90;;;;;;4975336;28;20225;-70
2024/01/11 08:00:28;;;;;;;2.87;1.60;;;29.10;99.90;;;;;;4979641;28;20207;-71
2024/01/11 08:02:56;;;;;;;4.27;1.20;;;28.90;99.90;;;;;;4981251;28;20286;-72
2024/01/11 08:05:23;;;;;;;6.90;2.00;;;28.90;99.90;;;;;;4984334;28;20274;-69
2024/01/11 08:07:50;;;;;;;4.43;1.30;;;29.10;99.90;;;;;;4987983;28;20317;-71
2024/01/11 08:10:18;;;;;;;4.60;1.57;;;29.20;99.90;;;;;;4974767;28;20187;-72
2024/01/11 08:12:45;;;;;;;3.80;1.70;;;29.10;99.90;;;;;;4991361;28;20286;-70
2024/01/11 08:15:12;;;;;;;5.43;1.60;;;29.00;99.90;;;;;;4978856;28;20202;-71
2024/01/11 08:17:44;;;;;;;6.07;1.70;;;28.90;99.90;;;;;;4974554;28;20337;-72
2024/01/11 08:20:12;;;;;;;5.67;1.80;;;28.50;99.90;;;;;;4979582;28;20182;-73
2024/01/11 08:22:48;;;;;;;2.60;1.77;;;28.60;99.90;;;;;;4986173;28;20237;-74
2024/01/11 08:25:15;;;;;;;5.30;1.80;;;28.60;99.90;;;;;;4994055;28;20178;-72
2024/01/11 08:27:43;;;;;;;4.43;2.00;;;28.40;99.90;;;;;;4994288;28;20185;-73
2024/01/11 08:30:12;;;;;;;8.17;1.93;;;28.30;99.90;;;;;;4988909;28;20592;-73
2024/01/11 08:32:41;;;;;;;3.40;1.87;;;28.30;99.90;;;;;;4987199;28;20182;-73
2024/01/11 08:35:12;;;;;;;4.80;2.17;;;28.30;99.90;;;;;;4974682;28;20740;-73
2024/01/11 08:37:40;;;;;;;4.40;1.50;;;28.30;99.90;;;;;;4974557;28;20600;-70
2024/01/11 08:40:09;;;;;;;5.60;1.83;;;28.10;99.90;;;;;;4973933;28;20179;-69
2024/01/11 08:42:36;;;;;;;5.30;1.90;;;28.00;99.90;;;;;;4975512;28;20286;-74
2024/01/11 08:45:07;;;;;;;5.00;1.70;;;27.80;99.90;;;;;;4974166;28;20724;-73
2024/01/11 08:47:35;;;;;;;5.20;1.73;;;27.60;99.90;;;;;;4985871;28;20547;-74
2024/01/11 08:50:05;;;;;;;6.33;2.00;;;27.60;99.90;;;;;;4988232;28;20186;-73
2024/01/11 08:52:33;;;;;;;7.30;2.20;;;27.50;99.90;;;;;;4990351;28;20244;-71
2024/01/11 08:55:01;;;;;;;5.20;1.90;;;27.30;99.90;;;;;;4984548;28;20230;-71
2024/01/11 08:57:28;;;;;;;5.27;2.10;;;27.20;99.90;;;;;;4979063;28;20206;-69
2024/01/11 08:59:56;;;;;;;4.57;2.03;;;27.10;99.90;;;;;;4982489;28;20238;-71
2024/01/11 09:02:23;;;;;;;5.87;2.30;;;27.10;99.90;;;;;;4986766;28;20648;-69
2024/01/11 09:04:50;;;;;;;6.10;2.63;;;27.00;99.90;;;;;;4982740;28;20186;-67
2024/01/11 09:07:21;;;;;;;7.10;2.23;;;26.90;99.90;;;;;;4990476;28;20191;-65
2024/01/11 09:09:49;;;;;;;4.77;1.97;;;26.90;99.90;;;;;;4975247;28;20207;-67
2024/01/11 09:12:17;;;;;;;5.97;1.93;;;26.90;99.90;;;;;;4974137;28;20195;-67
2024/01/11 09:14:44;;;;;;;6.50;2.30;;;26.90;99.90;;;;;;4973998;28;20237;-67
2024/01/11 09:17:11;;;;;;;5.97;1.80;;;27.00;99.90;;;;;;4983291;28;20217;-71
2024/01/11 09:19:39;;;;;;;7.77;2.00;;;26.90;99.90;;;;;;4981319;28;20193;-67
2024/01/11 09:22:09;;;;;;;5.67;2.00;;;26.90;99.90;;;;;;4986998;28;20298;-67
2024/01/11 09:24:37;;;;;;;6.53;1.83;;;26.90;99.90;;;;;;4972501;28;20245;-67
2024/01/11 09:27:05;;;;;;;7.33;1.90;;;27.00;99.90;;;;;;4977822;28;20183;-66
2024/01/11 09:29:32;;;;;;;6.00;2.30;;;26.90;99.90;;;;;;4988746;28;20193;-66
2024/01/11 09:32:00;;;;;;;7.37;2.10;;;26.90;99.90;;;;;;4991259;28;20217;-67
2024/01/11 09:34:28;;;;;;;7.83;2.33;;;26.90;99.90;;;;;;4991647;28;20738;-73
2024/01/11 09:36:58;;;;;;;5.97;2.27;;;26.80;99.90;;;;;;4992251;28;20187;-71
2024/01/11 09:39:26;;;;;;;6.43;2.20;;;26.80;99.90;;;;;;4993994;28;20596;-73
2024/01/11 09:41:59;;;;;;;22.13;4.27;;;26.70;99.90;;;;;;4993092;28;20181;-69
2024/01/11 09:44:30;;;;;;;10.70;3.07;;;26.60;99.90;;;;;;4993626;28;20245;-72
2024/01/11 09:47:00;;;;;;;10.10;3.27;;;26.40;99.90;;;;;;5003672;28;20185;-73
2024/01/11 09:49:29;;;;;;;10.53;3.47;;;26.20;99.90;;;;;;5001334;28;20191;-71
2024/01/11 09:51:57;;;;;;;7.93;2.90;;;26.00;99.90;;;;;;4997775;28;20183;-71
2024/01/11 09:54:26;;;;;;;5.77;2.53;;;25.90;99.90;;;;;;4994048;28;20603;-73
2024/01/11 09:56:55;;;;;;;3.33;2.10;;;25.80;99.90;;;;;;4993961;28;20174;-72
2024/01/11 09:59:24;;;;;;;7.77;2.87;;;25.70;99.90;;;;;;4993683;28;20187;-73
2024/01/11 10:01:52;;;;;;;3.40;2.30;;;25.60;99.90;;;;;;4992471;28;20667;-70
2024/01/11 10:04:20;;;;;;;8.63;2.47;;;25.70;99.90;;;;;;4993826;28;20234;-73
2024/01/11 10:06:49;;;;;;;8.87;3.23;;;25.60;99.90;;;;;;4990853;28;20183;-73
2024/01/11 10:09:16;;;;;;;7.03;2.90;;;25.80;99.90;;;;;;4993834;28;20170;-73
2024/01/11 10:11:45;;;;;;;8.07;3.10;;;25.70;99.90;;;;;;4993945;28;20604;-74
2024/01/11 10:14:14;;;;;;;10.87;3.33;;;25.80;99.90;;;;;;4992990;28;20268;-68
2024/01/11 10:16:43;;;;;;;8.00;2.90;;;25.80;99.90;;;;;;4993948;28;20178;-73
2024/01/11 10:19:13;;;;;;;11.57;3.60;;;25.80;99.90;;;;;;4993691;28;20214;-72
2024/01/11 10:21:40;;;;;;;8.10;2.60;;;25.80;99.90;;;;;;4993889;28;20198;-73
2024/01/11 10:24:08;;;;;;;8.97;2.63;;;25.60;99.90;;;;;;4993546;28;20182;-73
2024/01/11 10:26:36;;;;;;;6.53;1.90;;;25.40;99.90;;;;;;4993755;28;20186;-72
2024/01/11 10:29:05;;;;;;;5.93;1.73;;;25.00;99.90;;;;;;4993432;28;20550;-75
2024/01/11 10:31:34;;;;;;;5.70;2.10;;;24.70;99.90;;;;;;4993624;28;20195;-72
2024/01/11 10:34:02;;;;;;;6.47;2.63;;;24.60;99.90;;;;;;4993706;28;20178;-74
2024/01/11 10:36:32;;;;;;;7.37;2.87;;;24.80;99.90;;;;;;4993721;28;20269;-74
2024/01/11 10:39:04;;;;;;;8.67;2.93;;;24.70;99.90;;;;;;4993305;28;20289;-70
2024/01/11 10:41:52;;;;;;;5.87;3.27;;;24.80;99.90;;;;;;4992434;28;20559;-74
2024/01/11 10:44:23;;;;;;;10.00;3.87;;;24.80;99.90;;;;;;4993252;28;20236;-72
2024/01/11 10:46:52;;;;;;;13.30;3.93;;;25.00;99.90;;;;;;4993765;28;20575;-72
2024/01/11 10:49:23;;;;;;;10.10;3.47;;;25.00;99.90;;;;;;4993369;28;20591;-74
2024/01/11 10:52:02;;;;;;;13.40;3.53;;;25.10;99.90;;;;;;4993700;28;20177;-74
2024/01/11 10:54:30;;;;;;;6.00;3.40;;;25.10;99.90;;;;;;4993660;28;20179;-75
2024/01/11 10:57:00;;;;;;;14.97;3.80;;;25.10;99.90;;;;;;4993257;28;20183;-68
2024/01/11 10:59:30;;;;;;;8.23;3.70;;;25.10;99.90;;;;;;4993413;28;20190;-75
2024/01/11 11:02:00;;;;;;;10.33;3.97;;;25.10;99.90;;;;;;4993360;28;20175;-72
2024/01/11 11:04:30;;;;;;;13.23;4.20;;;25.20;99.90;;;;;;4987751;28;20186;-74
2024/01/11 11:06:58;;;;;;;10.77;4.20;;;25.30;99.90;;;;;;4973977;28;20205;-73
2024/01/11 11:09:27;;;;;;;7.37;3.93;;;25.30;99.90;;;;;;4976159;28;20717;-70
2024/01/11 11:11:59;;;;;;;12.87;3.93;;;25.40;99.90;;;;;;4973868;28;20187;-70
2024/01/11 11:14:28;;;;;;;12.10;4.00;;;25.30;99.90;;;;;;4973921;28;20187;-74
2024/01/11 11:16:55;;;;;;;11.20;3.40;;;25.40;99.90;;;;;;4973854;28;20270;-74
2024/01/11 11:19:23;;;;;;;7.37;3.30;;;25.30;99.90;;;;;;4973882;28;20180;-73
2024/01/11 11:21:51;;;;;;;7.73;3.00;;;25.40;99.90;;;;;;4973898;28;20183;-69
2024/01/11 11:24:18;;;;;;;9.33;3.07;;;25.40;99.90;;;;;;4975747;28;20195;-74
2024/01/11 11:26:46;;;;;;;8.00;2.97;;;25.50;99.90;;;;;;4976171;28;20188;-73
2024/01/11 11:29:15;;;;;;;12.10;3.40;;;25.40;99.90;;;;;;4977188;28;20187;-74
2024/01/11 11:31:55;;;;;;;8.37;3.53;;;25.30;99.90;;;;;;4977128;28;20227;-73
2024/01/11 11:34:44;;;;;;;9.97;3.30;;;25.30;99.90;;;;;;4977275;28;20198;-73
2024/01/11 11:37:12;;;;;;;10.17;3.10;;;25.30;99.90;;;;;;4977019;28;20180;-74
2024/01/11 11:39:42;;;;;;;11.07;3.43;;;25.40;99.90;;;;;;4976934;28;20183;-75
2024/01/11 11:42:12;;;;;;;6.07;3.33;;;25.40;99.90;;;;;;4977126;28;20262;-72
2024/01/11 11:44:52;;;;;;;10.13;3.77;;;25.40;99.90;;;;;;4990079;28;20226;-74
2024/01/11 11:47:23;;;;;;;11.07;3.60;;;25.30;99.90;;;;;;4996497;28;20199;-74
2024/01/11 11:50:07;;;;;;;7.40;3.40;;;25.30;99.90;;;;;;4985054;28;20278;-73
2024/01/11 11:52:35;;;;;;;10.00;3.80;;;25.30;99.90;;;;;;4996090;28;20183;-70
2024/01/11 11:55:04;;;;;;;8.13;3.67;;;25.30;99.90;;;;;;4995853;28;20625;-72
2024/01/11 11:57:32;;;;;;;11.67;3.17;;;25.30;99.90;;;;;;4995176;28;20202;-70
2024/01/11 12:00:00;;;;;;;11.63;3.20;;;25.20;99.90;;;;;;4995042;28;20559;-70
2024/01/11 12:02:28;;;;;;;9.07;3.40;;;25.20;99.90;;;;;;4995406;28;20205;-74
2024/01/11 12:04:56;;;;;;;8.63;3.10;;;25.10;99.90;;;;;;4984036;28;20179;-74
2024/01/11 12:07:23;;;;;;;10.90;3.30;;;25.20;99.90;;;;;;4976334;28;20192;-72
2024/01/11 12:09:54;;;;;;;7.40;3.23;;;25.20;99.90;;;;;;4985998;28;20241;-70
2024/01/11 12:12:21;;;;;;;17.20;3.17;;;25.10;99.90;;;;;;4995317;28;20190;-74
2024/01/11 12:14:49;;;;;;;11.07;2.60;;;25.10;99.90;;;;;;4995546;28;20179;-71
2024/01/11 12:17:17;;;;;;;6.95;2.60;;;25.10;99.90;;;;;;4995376;28;20253;-74
2024/01/11 12:19:44;;;;;;;11.73;3.20;;;25.10;99.90;;;;;;4994859;28;20639;-73
2024/01/11 12:22:11;;;;;;;7.23;2.40;;;25.10;99.90;;;;;;4995591;28;20221;-74
2024/01/11 12:24:39;;;;;;;9.10;2.77;;;25.10;99.90;;;;;;4995254;28;20186;-71
2024/01/11 12:27:06;;;;;;;8.80;2.60;;;25.00;99.90;;;;;;4994627;28;20182;-74
2024/01/11 12:29:33;;;;;;;12.27;2.60;;;25.10;99.90;;;;;;4995441;28;20227;-73
2024/01/11 12:32:02;;;;;;;7.63;2.37;;;25.10;99.90;;;;;;4995151;28;20178;-74
2024/01/11 12:34:30;;;;;;;7.57;2.70;;;25.10;99.90;;;;;;4995119;28;20626;-74
2024/01/11 12:37:00;;;;;;;4.97;1.90;;;25.10;99.90;;;;;;4994276;28;20212;-71
2024/01/11 12:39:27;;;;;;;9.90;2.10;;;25.00;99.90;;;;;;4995730;28;20174;-72
2024/01/11 12:41:57;;;;;;;5.60;1.70;;;25.00;99.90;;;;;;4993250;28;20241;-73
2024/01/11 12:44:25;;;;;;;5.60;2.07;;;25.00;99.90;;;;;;4994721;28;20306;-69
2024/01/11 12:46:55;;;;;;;6.33;1.80;;;24.90;99.90;;;;;;4994814;28;20310;-73
2024/01/11 12:49:23;;;;;;;10.37;1.90;;;24.80;99.90;;;;;;4994949;28;20183;-73
2024/01/11 12:51:51;;;;;;;7.13;1.70;;;24.80;99.90;;;;;;4975775;28;20283;-75
2024/01/11 12:54:21;;;;;;;6.30;1.60;;;24.80;99.90;;;;;;4975651;28;20198;-74